Bluff Estates, South Carolina
Current Conditions -  °F | °C
As of 1:14 PM on Saturday 20 Dec 2014 (Local Time) from KCUB Reporting Station
Overcast Overcast  
Wind Chill:   Ceiling: 900
Heat Index:   Visibility: 8mi
Dew Point:   Wind: 3mph
Humidity: 83%   Direction: 40°NE
Pressure: 30.21"   Gusts: NA
Location:  33.9488°N, 80.9462°W
Report Text: KCUB 201814Z AUTO 04003KT 8SM BKN009 OVC017 09/06 A3021 RMK AO2 CIG 008V011 T00890061
Loading
Personal Weather Stations






























Interactive Weather Map New forecast layout! Learn more

10-Day Weather Forecast

Advertisements
Track Severe Weather on mobile